createdAt,value
2018-11-11T00:00:13.398Z,47.78
2018-11-11T00:02:41.532Z,47.94
2018-11-11T00:05:10.465Z,48.10
2018-11-11T00:07:38.628Z,47.85
2018-11-11T00:10:06.916Z,48.57
2018-11-11T00:12:35.086Z,48.08
2018-11-11T00:15:03.369Z,48.01
2018-11-11T00:17:31.496Z,48.39
2018-11-11T00:19:59.712Z,47.90
2018-11-11T00:22:27.864Z,48.06
2018-11-11T00:24:56.018Z,48.04
2018-11-11T00:27:24.268Z,48.81
2018-11-11T00:29:52.407Z,48.72
2018-11-11T00:32:21.424Z,48.79
2018-11-11T00:34:49.560Z,47.83
2018-11-11T00:37:17.767Z,48.29
2018-11-11T00:39:46.002Z,47.98
2018-11-11T00:42:14.086Z,48.58
2018-11-11T00:44:42.237Z,48.17
2018-11-11T00:47:10.469Z,48.88
2018-11-11T00:49:38.645Z,48.96
2018-11-11T00:52:07.293Z,48.81
2018-11-11T00:54:35.490Z,48.84
2018-11-11T00:57:03.638Z,48.27
2018-11-11T00:59:31.771Z,48.12
2018-11-11T01:01:59.909Z,48.70
2018-11-11T01:04:28.101Z,48.36
2018-11-11T01:06:56.278Z,49.18
2018-11-11T01:09:24.464Z,48.12
2018-11-11T01:11:52.620Z,48.56
2018-11-11T01:14:20.823Z,49.40
2018-11-11T01:16:49.106Z,48.72
2018-11-11T01:19:17.791Z,48.22
2018-11-11T01:21:45.937Z,48.98
2018-11-11T01:24:14.073Z,49.39
2018-11-11T01:26:42.223Z,48.92
2018-11-11T01:29:10.339Z,48.54
2018-11-11T01:31:38.476Z,48.11
2018-11-11T01:34:06.633Z,48.92
2018-11-11T01:36:34.750Z,49.10
2018-11-11T01:39:03.064Z,49.69
2018-11-11T01:41:31.169Z,49.34
2018-11-11T01:43:59.282Z,48.61
2018-11-11T01:46:27.389Z,49.19
2018-11-11T01:48:56.300Z,49.10
2018-11-11T01:51:24.403Z,49.36
2018-11-11T01:53:52.532Z,48.67
2018-11-11T01:56:20.653Z,48.26
2018-11-11T01:58:48.824Z,49.24
2018-11-11T02:01:16.971Z,49.56
2018-11-11T02:03:45.174Z,48.31
2018-11-11T02:06:13.304Z,49.56
2018-11-11T02:08:41.476Z,49.37
2018-11-11T02:11:09.582Z,49.17
2018-11-11T02:13:37.702Z,48.93
2018-11-11T02:16:06.342Z,49.53
2018-11-11T02:18:34.888Z,49.44
2018-11-11T02:21:03.074Z,49.51
2018-11-11T02:23:31.205Z,49.52
2018-11-11T02:25:59.465Z,49.54
2018-11-11T02:28:27.580Z,49.30
2018-11-11T02:30:55.698Z,49.33
2018-11-11T02:33:23.804Z,48.95
2018-11-11T02:35:51.819Z,49.57
2018-11-11T02:38:19.862Z,49.46
2018-11-11T02:40:47.931Z,49.67
2018-11-11T02:43:16.044Z,49.05
2018-11-11T02:45:44.162Z,48.63
2018-11-11T02:48:12.274Z,48.94
2018-11-11T02:50:40.461Z,49.06
2018-11-11T02:53:08.682Z,49.16
2018-11-11T02:55:36.897Z,48.56
2018-11-11T02:58:05.111Z,49.15
2018-11-11T03:00:33.217Z,49.30
2018-11-11T03:03:01.322Z,49.21
2018-11-11T03:05:29.399Z,49.09
2018-11-11T03:07:57.480Z,48.99
2018-11-11T03:10:25.563Z,48.58
2018-11-11T03:12:53.672Z,49.83
2018-11-11T03:15:21.738Z,49.16
2018-11-11T03:17:49.893Z,49.39
2018-11-11T03:20:18.344Z,49.63
2018-11-11T03:22:46.419Z,49.00
2018-11-11T03:25:15.457Z,49.92
2018-11-11T03:27:43.679Z,49.41
2018-11-11T03:30:13.121Z,50.00
2018-11-11T03:32:41.359Z,49.06
2018-11-11T03:35:10.482Z,50.06
2018-11-11T03:37:38.567Z,49.48
2018-11-11T03:40:09.087Z,50.09
2018-11-11T03:42:37.144Z,50.01
2018-11-11T03:45:05.677Z,49.35
2018-11-11T03:47:33.826Z,50.57
2018-11-11T03:50:01.928Z,49.80
2018-11-11T03:52:30.004Z,49.51
2018-11-11T03:54:58.062Z,49.34
2018-11-11T03:57:26.450Z,49.86
2018-11-11T03:59:54.491Z,49.29
2018-11-11T04:02:22.591Z,50.08
2018-11-11T04:04:50.761Z,49.62
2018-11-11T04:07:18.809Z,49.68
2018-11-11T04:09:46.883Z,50.03
2018-11-11T04:12:14.985Z,49.93
2018-11-11T04:14:43.055Z,50.44
2018-11-11T04:17:11.144Z,50.26
2018-11-11T04:19:39.261Z,50.26
2018-11-11T04:22:15.420Z,49.88
2018-11-11T04:24:43.471Z,50.72
2018-11-11T04:27:11.687Z,50.37
2018-11-11T04:29:39.734Z,49.82
2018-11-11T04:32:08.082Z,50.46
2018-11-11T04:34:37.100Z,50.76
2018-11-11T04:37:05.407Z,49.83
2018-11-11T04:39:33.480Z,49.92
2018-11-11T04:42:01.583Z,50.08
2018-11-11T04:44:29.668Z,50.97
2018-11-11T04:46:57.759Z,50.16
2018-11-11T04:49:25.881Z,50.39
2018-11-11T04:51:54.024Z,50.01
2018-11-11T04:54:22.071Z,50.93
2018-11-11T04:56:50.201Z,50.63
2018-11-11T04:59:18.356Z,50.45
2018-11-11T05:01:46.432Z,50.80
2018-11-11T05:04:15.053Z,50.74
2018-11-11T05:06:43.090Z,50.72
2018-11-11T05:09:12.723Z,50.62
2018-11-11T05:11:41.097Z,50.12
2018-11-11T05:14:10.277Z,50.25
2018-11-11T05:16:38.431Z,50.76
2018-11-11T05:19:07.435Z,50.39
2018-11-11T05:21:35.509Z,50.52
2018-11-11T05:24:03.919Z,50.61
2018-11-11T05:26:31.956Z,51.17
2018-11-11T05:29:00.036Z,50.12
2018-11-11T05:31:28.102Z,51.62
2018-11-11T05:33:56.218Z,51.16
2018-11-11T05:36:24.261Z,51.20
2018-11-11T05:38:52.364Z,51.81
2018-11-11T05:41:20.456Z,50.71
2018-11-11T05:43:48.527Z,51.34
2018-11-11T05:46:16.594Z,50.87
2018-11-11T05:48:44.769Z,51.61
2018-11-11T05:51:12.921Z,51.71
2018-11-11T05:53:40.992Z,51.80
2018-11-11T05:56:09.064Z,51.32
2018-11-11T05:58:37.137Z,51.29
2018-11-11T06:01:05.588Z,51.92
2018-11-11T06:03:33.946Z,52.24
2018-11-11T06:06:02.037Z,52.36
2018-11-11T06:08:30.165Z,52.41
2018-11-11T06:10:58.296Z,52.39
2018-11-11T06:13:26.395Z,52.39
2018-11-11T06:15:54.493Z,52.03
2018-11-11T06:18:22.721Z,52.39
2018-11-11T06:20:50.839Z,52.53
2018-11-11T06:23:18.963Z,52.86
2018-11-11T06:25:47.056Z,52.26
2018-11-11T06:28:15.479Z,52.83
2018-11-11T06:30:43.630Z,52.74
2018-11-11T06:33:11.729Z,52.74
2018-11-11T06:35:39.843Z,52.34
2018-11-11T06:38:07.915Z,52.15
2018-11-11T06:40:35.996Z,52.59
2018-11-11T06:43:04.372Z,52.77
2018-11-11T06:45:32.480Z,52.15
2018-11-11T06:48:00.666Z,51.74
2018-11-11T06:50:28.787Z,52.17
2018-11-11T06:52:56.859Z,51.85
2018-11-11T06:55:24.957Z,52.00
2018-11-11T06:57:53.064Z,51.77
2018-11-11T07:00:21.187Z,52.03
2018-11-11T07:03:00.704Z,51.80
2018-11-11T07:05:28.841Z,52.84
2018-11-11T07:07:56.999Z,51.94
2018-11-11T07:10:25.051Z,52.27
2018-11-11T07:12:53.109Z,52.74
2018-11-11T07:15:21.231Z,52.61
2018-11-11T07:17:49.354Z,51.77
2018-11-11T07:20:17.411Z,51.73
2018-11-11T07:22:45.491Z,52.05
2018-11-11T07:25:13.698Z,52.02
2018-11-11T07:27:41.906Z,51.68
2018-11-11T07:30:10.032Z,52.02
2018-11-11T07:32:38.204Z,52.25
2018-11-11T07:35:07.544Z,53.18
2018-11-11T07:37:35.599Z,51.60
2018-11-11T07:40:03.655Z,52.05
2018-11-11T07:42:31.870Z,53.21
2018-11-11T07:44:59.892Z,51.85
2018-11-11T07:47:27.960Z,52.12
2018-11-11T07:49:56.118Z,52.08
2018-11-11T07:52:24.162Z,50.90
2018-11-11T07:54:52.293Z,51.43
2018-11-11T07:57:20.444Z,51.02
2018-11-11T07:59:48.564Z,51.14
2018-11-11T08:02:17.256Z,50.96
2018-11-11T08:04:45.395Z,49.91
2018-11-11T08:07:13.452Z,50.19
2018-11-11T08:09:41.623Z,49.94
2018-11-11T08:12:09.791Z,49.44
2018-11-11T08:14:37.866Z,49.44
2018-11-11T08:17:05.927Z,49.56
2018-11-11T08:19:34.021Z,48.48
2018-11-11T08:22:02.083Z,48.99
2018-11-11T08:24:30.320Z,48.62
2018-11-11T08:26:58.502Z,48.38
2018-11-11T08:29:26.580Z,48.20
2018-11-11T08:31:54.624Z,47.42
2018-11-11T08:34:23.732Z,47.86
2018-11-11T08:36:51.832Z,48.44
2018-11-11T08:39:19.866Z,49.03
2018-11-11T08:41:48.356Z,47.81
2018-11-11T08:44:16.455Z,48.85
2018-11-11T08:46:45.536Z,48.23
2018-11-11T08:49:14.089Z,48.36
2018-11-11T08:51:42.223Z,48.06
2018-11-11T08:54:10.267Z,47.81
2018-11-11T08:56:38.361Z,48.74
2018-11-11T08:59:06.467Z,48.17
2018-11-11T09:01:34.538Z,48.78
2018-11-11T09:04:02.673Z,47.75
2018-11-11T09:06:30.755Z,48.10
2018-11-11T09:08:58.812Z,49.12
2018-11-11T09:11:26.900Z,48.68
2018-11-11T09:13:55.061Z,48.12
2018-11-11T09:16:23.108Z,48.91
2018-11-11T09:18:51.210Z,48.37
2018-11-11T09:21:19.328Z,48.07
2018-11-11T09:23:47.506Z,48.21
2018-11-11T09:26:15.685Z,49.00
2018-11-11T09:28:43.780Z,48.49
2018-11-11T09:31:11.899Z,48.60
2018-11-11T09:33:40.249Z,48.34
2018-11-11T09:36:09.129Z,49.23
2018-11-11T09:38:37.197Z,48.09
2018-11-11T09:41:05.788Z,49.17
2018-11-11T09:43:33.967Z,48.55
2018-11-11T09:46:02.156Z,49.69
2018-11-11T09:48:30.296Z,48.77
2018-11-11T09:50:58.380Z,48.66
2018-11-11T09:53:26.779Z,49.47
2018-11-11T09:55:54.909Z,49.31
2018-11-11T09:58:22.991Z,48.81
2018-11-11T10:00:51.038Z,49.26
2018-11-11T10:04:22.090Z,49.33
2018-11-11T10:07:03.452Z,50.02
2018-11-11T10:09:43.422Z,49.25
2018-11-11T10:12:19.819Z,49.28
2018-11-11T10:16:57.503Z,50.25
2018-11-11T10:19:34.663Z,49.84
2018-11-11T10:22:08.055Z,49.33
2018-11-11T10:24:42.876Z,50.29
2018-11-11T10:27:18.994Z,50.11
2018-11-11T10:29:56.688Z,50.58
2018-11-11T10:32:40.363Z,50.40
2018-11-11T10:35:28.749Z,50.11
2018-11-11T10:38:00.604Z,49.75
2018-11-11T10:41:01.314Z,51.04
2018-11-11T10:43:36.052Z,50.65
2018-11-11T10:46:09.367Z,50.61
2018-11-11T10:48:40.923Z,50.93
2018-11-11T10:51:09.160Z,50.86
2018-11-11T10:53:37.281Z,50.63
2018-11-11T10:56:05.488Z,50.15
2018-11-11T10:58:33.579Z,50.84
2018-11-11T11:01:07.444Z,50.12
2018-11-11T11:03:36.872Z,50.35
2018-11-11T11:06:05.357Z,51.01
2018-11-11T11:08:33.458Z,51.05
2018-11-11T11:11:01.658Z,50.55
2018-11-11T11:13:30.477Z,51.90
2018-11-11T11:15:59.178Z,52.37
2018-11-11T11:18:27.470Z,55.10
2018-11-11T11:20:55.873Z,53.85
2018-11-11T11:23:23.995Z,54.25
2018-11-11T11:25:52.313Z,53.79
2018-11-11T11:28:20.342Z,53.64
2018-11-11T11:30:48.443Z,53.76
2018-11-11T11:33:16.687Z,52.99
2018-11-11T11:35:44.961Z,52.83
2018-11-11T11:38:13.168Z,52.50
2018-11-11T11:40:41.303Z,52.10
2018-11-11T11:43:09.474Z,52.85
2018-11-11T11:45:37.610Z,52.41
2018-11-11T11:48:05.788Z,52.83
2018-11-11T11:50:33.997Z,52.68
2018-11-11T11:53:02.135Z,52.79
2018-11-11T11:55:30.166Z,52.49
2018-11-11T11:58:25.972Z,53.22
2018-11-11T12:00:54.197Z,53.20
2018-11-11T12:03:22.463Z,52.62
2018-11-11T12:05:50.755Z,53.09
2018-11-11T12:08:19.131Z,53.05
2018-11-11T12:10:47.351Z,53.03
2018-11-11T12:13:16.127Z,52.75
2018-11-11T12:15:44.536Z,52.78
2018-11-11T12:18:12.767Z,52.35
2018-11-11T12:20:41.294Z,53.16
2018-11-11T12:23:09.825Z,52.23
2018-11-11T12:25:38.537Z,52.05
2018-11-11T12:28:07.966Z,52.36
2018-11-11T12:30:36.171Z,52.30
2018-11-11T12:33:04.257Z,53.19
2018-11-11T12:35:32.328Z,53.07
2018-11-11T12:38:00.923Z,52.98
2018-11-11T12:40:29.013Z,52.05
2018-11-11T12:42:57.342Z,52.68
2018-11-11T12:45:25.470Z,53.03
2018-11-11T12:47:53.648Z,51.51
2018-11-11T12:50:21.961Z,51.99
2018-11-11T12:52:49.971Z,52.41
2018-11-11T12:55:18.211Z,51.63
2018-11-11T12:57:46.320Z,50.58
2018-11-11T13:00:15.161Z,50.39
2018-11-11T13:02:43.265Z,50.31
2018-11-11T13:05:11.675Z,50.65
2018-11-11T13:07:39.808Z,50.88
2018-11-11T13:10:09.955Z,50.68
2018-11-11T13:12:38.190Z,50.85
2018-11-11T13:15:07.407Z,51.26
2018-11-11T13:17:35.512Z,50.74
2018-11-11T13:20:04.153Z,50.53
2018-11-11T13:22:32.362Z,49.62
2018-11-11T13:25:00.459Z,50.04
2018-11-11T13:27:29.088Z,49.62
2018-11-11T13:29:57.186Z,50.46
2018-11-11T13:32:25.290Z,49.91
2018-11-11T13:34:53.331Z,49.38
2018-11-11T13:37:21.519Z,50.38
2018-11-11T13:39:49.765Z,50.09
2018-11-11T13:42:17.889Z,49.72
2018-11-11T13:44:45.926Z,49.19
2018-11-11T13:47:13.988Z,49.63
2018-11-11T13:49:42.084Z,49.39
2018-11-11T13:52:10.193Z,50.37
2018-11-11T13:54:38.335Z,49.69
2018-11-11T13:57:07.204Z,49.11
2018-11-11T13:59:35.255Z,49.56
2018-11-11T14:02:03.406Z,49.78
2018-11-11T14:04:31.601Z,49.77
2018-11-11T14:06:59.670Z,49.18
2018-11-11T14:09:27.803Z,49.58
2018-11-11T14:11:55.971Z,48.91
2018-11-11T14:14:24.007Z,49.41
2018-11-11T14:16:52.085Z,48.97
2018-11-11T14:19:20.449Z,48.75
2018-11-11T14:21:48.337Z,49.59
2018-11-11T14:24:16.464Z,49.03
2018-11-11T14:26:44.770Z,48.82
2018-11-11T14:29:12.645Z,48.45
2018-11-11T14:31:40.697Z,48.77
2018-11-11T14:34:08.840Z,48.58
2018-11-11T14:36:37.075Z,48.79
2018-11-11T14:39:09.009Z,48.66
2018-11-11T14:41:37.121Z,48.33
2018-11-11T14:44:05.519Z,48.54
2018-11-11T14:46:33.596Z,48.47
2018-11-11T14:49:01.730Z,48.42
2018-11-11T14:51:29.811Z,47.76
2018-11-11T14:53:57.896Z,47.75
2018-11-11T14:56:26.031Z,47.87
2018-11-11T14:58:54.277Z,47.75
2018-11-11T15:01:22.205Z,47.40
2018-11-11T15:03:50.391Z,47.81
2018-11-11T15:06:18.540Z,46.96
2018-11-11T15:08:47.253Z,46.81
2018-11-11T15:11:17.195Z,46.83
2018-11-11T15:13:45.323Z,47.54
2018-11-11T15:16:13.382Z,47.40
2018-11-11T15:18:41.544Z,47.28
2018-11-11T15:21:09.734Z,47.01
2018-11-11T15:23:37.716Z,46.63
2018-11-11T15:26:05.946Z,47.37
2018-11-11T15:28:34.024Z,46.59
2018-11-11T15:31:02.201Z,47.28
2018-11-11T15:33:30.191Z,46.50
2018-11-11T15:35:58.304Z,47.22
2018-11-11T15:38:26.426Z,46.32
2018-11-11T15:40:54.511Z,47.03
2018-11-11T15:43:22.563Z,46.58
2018-11-11T15:45:50.621Z,46.24
2018-11-11T15:48:19.543Z,46.34
2018-11-11T15:50:47.611Z,46.14
2018-11-11T15:53:15.704Z,46.60
2018-11-11T15:55:43.780Z,45.54
2018-11-11T15:58:11.983Z,46.19
2018-11-11T16:00:41.737Z,46.27
2018-11-11T16:03:09.819Z,45.38
2018-11-11T16:05:37.963Z,46.06
2018-11-11T16:08:06.052Z,46.17
2018-11-11T16:10:34.576Z,45.50
2018-11-11T16:13:02.711Z,45.93
2018-11-11T16:15:33.457Z,45.38
2018-11-11T16:18:03.092Z,45.38
2018-11-11T16:20:31.655Z,46.12
2018-11-11T16:23:00.632Z,46.03
2018-11-11T16:25:28.997Z,45.60
2018-11-11T16:27:57.095Z,45.57
2018-11-11T16:30:26.764Z,44.71
2018-11-11T16:32:55.655Z,44.85
2018-11-11T16:35:24.794Z,44.41
2018-11-11T16:37:52.956Z,44.55
2018-11-11T16:40:22.561Z,45.13
2018-11-11T16:42:51.168Z,44.18
2018-11-11T16:45:21.508Z,44.53
2018-11-11T16:47:49.749Z,44.59
2018-11-11T16:50:21.148Z,44.46
2018-11-11T16:52:50.052Z,44.72
2018-11-11T16:55:19.524Z,43.98
2018-11-11T16:57:47.621Z,43.67
2018-11-11T17:00:17.828Z,44.56
2018-11-11T17:02:46.503Z,44.53
2018-11-11T17:05:15.991Z,44.68
2018-11-11T17:07:44.387Z,43.65
2018-11-11T17:10:15.007Z,43.81
2018-11-11T17:12:44.005Z,44.24
2018-11-11T17:15:14.350Z,43.83
2018-11-11T17:17:42.507Z,44.42
2018-11-11T17:20:13.035Z,43.65
2018-11-11T17:22:41.318Z,44.21
2018-11-11T17:25:10.792Z,44.58
2018-11-11T17:27:38.903Z,43.95
2018-11-11T17:30:14.695Z,44.10
2018-11-11T17:32:43.484Z,43.81
2018-11-11T17:35:11.714Z,44.61
2018-11-11T17:37:40.103Z,44.79
2018-11-11T17:40:11.577Z,44.75
2018-11-11T17:42:40.823Z,43.98
2018-11-11T17:45:09.401Z,44.03
2018-11-11T17:47:37.624Z,43.92
2018-11-11T17:50:08.449Z,44.69
2018-11-11T17:52:36.586Z,44.72
2018-11-11T17:55:04.691Z,43.85
2018-11-11T17:57:32.810Z,43.48
2018-11-11T18:00:00.950Z,44.36
2018-11-11T18:02:29.381Z,43.93
2018-11-11T18:04:57.432Z,43.75
2018-11-11T18:07:25.603Z,44.10
2018-11-11T18:09:53.775Z,45.09
2018-11-11T18:12:22.903Z,44.94
2018-11-11T18:14:51.352Z,45.07
2018-11-11T18:17:19.595Z,45.71
2018-11-11T18:19:47.793Z,45.70
2018-11-11T18:22:16.149Z,44.91
2018-11-11T18:24:44.342Z,45.67
2018-11-11T18:27:12.609Z,45.93
2018-11-11T18:29:40.749Z,45.14
2018-11-11T18:32:09.676Z,45.39
2018-11-11T18:34:37.993Z,44.88
2018-11-11T18:37:06.117Z,45.74
2018-11-11T18:39:34.318Z,46.01
2018-11-11T18:42:02.643Z,45.83
2018-11-11T18:44:30.806Z,45.91
2018-11-11T18:46:59.188Z,46.67
2018-11-11T18:49:27.499Z,45.48
2018-11-11T18:51:55.802Z,45.99
2018-11-11T18:54:24.029Z,45.74
2018-11-11T18:56:52.260Z,46.63
2018-11-11T18:59:20.556Z,46.22
2018-11-11T19:01:48.783Z,46.13
2018-11-11T19:04:17.037Z,46.15
2018-11-11T19:06:45.350Z,46.97
2018-11-11T19:09:16.316Z,46.99
2018-11-11T19:11:44.830Z,46.68
2018-11-11T19:14:12.976Z,46.31
2018-11-11T19:16:40.999Z,47.02
2018-11-11T19:19:09.055Z,46.67
2018-11-11T19:21:37.185Z,46.72
2018-11-11T19:24:06.270Z,46.61
2018-11-11T19:26:34.564Z,46.86
2018-11-11T19:29:02.679Z,46.74
2018-11-11T19:31:30.968Z,46.98
2018-11-11T19:33:59.091Z,46.52
2018-11-11T19:36:27.217Z,47.36
2018-11-11T19:38:55.337Z,46.51
2018-11-11T19:41:23.499Z,47.33
2018-11-11T19:46:17.987Z,47.37
2018-11-11T19:48:45.983Z,47.39
2018-11-11T19:51:14.023Z,46.68
2018-11-11T19:53:42.122Z,46.81
2018-11-11T19:56:10.298Z,47.66
2018-11-11T19:58:38.406Z,47.68
2018-11-11T20:01:06.632Z,47.59
2018-11-11T20:03:34.710Z,47.05
2018-11-11T20:06:02.891Z,47.39
2018-11-11T20:08:30.886Z,47.61
2018-11-11T20:10:59.040Z,46.85
2018-11-11T20:13:27.172Z,47.02
2018-11-11T20:15:55.356Z,47.24
2018-11-11T20:18:23.518Z,47.44
2018-11-11T20:20:51.655Z,46.91
2018-11-11T20:23:19.788Z,46.98
2018-11-11T20:25:47.939Z,47.74
2018-11-11T20:28:16.203Z,47.33
2018-11-11T20:30:44.271Z,47.09
2018-11-11T20:33:12.474Z,47.83
2018-11-11T20:35:40.633Z,47.68
2018-11-11T20:38:08.808Z,47.55
2018-11-11T20:40:36.996Z,47.20
2018-11-11T20:43:05.309Z,46.94
2018-11-11T20:45:34.221Z,47.22
2018-11-11T20:48:02.298Z,48.01
2018-11-11T20:50:31.671Z,47.85
2018-11-11T20:53:03.058Z,48.12
2018-11-11T20:55:31.265Z,47.73
2018-11-11T20:57:59.447Z,47.83
2018-11-11T21:00:31.007Z,47.34
2018-11-11T21:02:59.198Z,47.22
2018-11-11T21:05:28.053Z,48.30
2018-11-11T21:07:56.407Z,45.42
2018-11-11T21:10:25.803Z,45.49
2018-11-11T21:12:54.019Z,46.23
2018-11-11T21:15:23.554Z,46.41
2018-11-11T21:17:51.787Z,46.06
2018-11-11T21:20:24.315Z,47.28
2018-11-11T21:22:52.386Z,47.51
2018-11-11T21:25:20.699Z,47.37
2018-11-11T21:27:49.652Z,47.83
2018-11-11T21:30:20.031Z,47.49
2018-11-11T21:32:48.447Z,47.12
2018-11-11T21:35:16.826Z,47.23
2018-11-11T21:37:45.141Z,46.93
2018-11-11T21:40:16.879Z,48.28
2018-11-11T21:42:45.896Z,48.08
2018-11-11T21:45:15.234Z,47.76
2018-11-11T21:47:43.753Z,48.10
2018-11-11T21:50:13.256Z,47.77
2018-11-11T21:52:42.103Z,47.80
2018-11-11T21:55:10.395Z,47.63
2018-11-11T21:57:38.479Z,47.41
2018-11-11T22:00:09.026Z,47.74
2018-11-11T22:02:37.156Z,47.83
2018-11-11T22:05:06.690Z,47.82
2018-11-11T22:07:34.759Z,47.97
2018-11-11T22:10:02.951Z,47.71
2018-11-11T22:12:30.963Z,48.02
2018-11-11T22:14:59.003Z,48.66
2018-11-11T22:17:27.040Z,47.75
2018-11-11T22:19:55.137Z,48.49
2018-11-11T22:22:23.320Z,48.86
2018-11-11T22:24:51.264Z,48.19
2018-11-11T22:27:20.011Z,48.46
2018-11-11T22:29:48.055Z,49.17
2018-11-11T22:32:16.101Z,48.16
2018-11-11T22:34:44.157Z,48.35
2018-11-11T22:37:12.231Z,48.89
2018-11-11T22:39:40.329Z,48.18
2018-11-11T22:42:08.461Z,48.64
2018-11-11T22:44:36.514Z,48.81
2018-11-11T22:47:04.792Z,49.35
2018-11-11T22:49:32.883Z,48.46
2018-11-11T22:52:00.949Z,49.33
2018-11-11T22:54:29.002Z,48.58
2018-11-11T22:56:57.114Z,49.18
2018-11-11T22:59:25.194Z,48.49
2018-11-11T23:01:53.260Z,48.21
2018-11-11T23:04:21.333Z,48.51
2018-11-11T23:06:49.393Z,48.67
2018-11-11T23:09:17.481Z,48.14
2018-11-11T23:11:45.559Z,48.69
2018-11-11T23:14:13.663Z,48.28
2018-11-11T23:16:41.736Z,49.06
2018-11-11T23:19:09.875Z,48.70
2018-11-11T23:21:37.963Z,48.47
2018-11-11T23:24:06.474Z,49.02
2018-11-11T23:26:34.563Z,48.57
2018-11-11T23:29:02.608Z,49.00
2018-11-11T23:31:30.656Z,49.23
2018-11-11T23:33:58.712Z,47.96
2018-11-11T23:36:26.784Z,48.06
2018-11-11T23:38:55.596Z,48.07
2018-11-11T23:41:23.771Z,48.91
2018-11-11T23:43:51.905Z,48.27
2018-11-11T23:46:19.984Z,49.85
2018-11-11T23:48:48.053Z,48.14
2018-11-11T23:51:16.123Z,48.95
2018-11-11T23:53:44.213Z,49.90
2018-11-11T23:56:12.264Z,49.30
2018-11-11T23:58:40.363Z,49.07
